Selawik, AK

02:44 PM AKDT del 20 Ottobre 2014 (GMT -0800)
Selawik | Change Station
CLOSE
Current Station
Aeroporto
Location: Selawik,
Altitudine: 26 ft
Stazioni meteo nelle vicinanze

Alt. 26 ft 66.60 °N, 159.99 °W | Updated 8 minutes ago

Overcast
Coperto
28 °F
Sembra 28 °F
N
0
Vento Variabile Vento da Nord

Oggi
Massima -- | Minima -- °F
--% Possibilità di precip.
Ieri
Massima -- | Minima -- °F
Precip. -- in
9:56 AM 6:51 PM
Luna calante, 9% visible
Pressione 29.39 in
Visibilità 10.0 miglia
Nuvole Alcuni 5000 ft
Nubi sparse 6000 ft
Coperto 8000 ft
Punto di rugiada 19 °F
Umidità 69%
Piovosità 0.00 in
Spessore del manto nevoso Non disponibile.
Raggi UV 0 fuori da 12
Polline Non disponibile.
Qualità dell'aria Non disponibile.
Flu Activity Sporadic
METAR PASK 202236Z AUTO 00000KT 10SM FEW050 SCT060 OVC080 M02/M07 A2939 RMK AO1

More Conditions Fewer Conditions

Pressione 29.39 in
Visibilità 10.0 miglia
Nuvole Alcuni 5000 ft
Nubi sparse 6000 ft
Coperto 8000 ft
Punto di rugiada 19 °F
Umidità 69%
Piovosità 0.00 in
Spessore del manto nevoso Non disponibile.
Raggi UV 0 fuori da 12
Polline Non disponibile.
Qualità dell'aria Non disponibile.
Flu Activity Sporadic
METAR PASK 202236Z AUTO 00000KT 10SM FEW050 SCT060 OVC080 M02/M07 A2939 RMK AO1

More Conditions Fewer Conditions

10-Day Weather Forecast

Almanac

Astronomia

Oct. 20, 2014 Alba Tramonto
Ora attuale 09:56 AKDT 18:51 AKDT
Crepuscolo civile 09:01 AKDT 19:46 AKDT
Crepuscolo nautico 08:00 AKDT 20:47 AKDT
Crepuscolo astronomico 06:59 AKDT 21:48 AKDT
Luna 05:44 AKDT 18:20 AKDT
Estensione della luce visibile 10h 44m
Lunghezza del giorno
8h 54m
Luna calante, 9% of the Moon is Illuminated
Oggi
Luna calante
Ott 23
Nuovo
Ott 30
Primo quarto
Nov 6
Luna piena
Nov 14
Ultimo quarto

Gli estremi di oggi

State Highs State Lows

Community

WunderPhotos

Upload Photos

1,763,541 foto caricate!

WunderBlogs® & News

By Dr. Jeff Masters
Director of Meteorology, Weather Underground
By Kari Strenfel
Meteorologist, Weather Underground
By Christopher C. Burt
Weather Historian, Weather Underground
October 20, 2014
October 20, 2014
October 20, 2014

Nearby

Qualità dell'aria

Not available.

Profondità neve

Stazione Profondità Altitudine
Pargon Creek 0 in 300 ft
Rocky Point 2 in 500 ft
Gobblers Knob 2 in 2030 ft
Coldfoot 4 in 1040 ft
Atigun Pass 13 in 4800 ft

Attività sismica

Città  Distanza Mag. Data & Ora
Non sono state riportate attività sismiche nelle vicinanze.
Minimo Magnitudo Mostrato è 2.5.

Temperature delle acque costiere

Località Temperatura
Nessun dato dalle stazioni

Stazioni meteo nelle vicinanze